EZY43A EGKK-EGPH
Flight info
| Callsign | EZY43A |
|---|---|
| Flight time | 1h 1m |
| Altitude | 38000 |
| Route | LAM L10 BPK UN601 RIBEL DCT INPIP |
| Aircraft | A20N/M-SDE2E3FGHIRWXY/LB1 |
Departure
| Time | 2026-05-04 18:52 |
|---|---|
| Airport | London Gatwick Airport (EGKK) |
Arrival
| Time | 2026-05-04 19:53 |
|---|---|
| Airport | Edinburgh Airport (EGPH) |
| Time | Latitude | Longitude | Altitude | Speed | Heading |
|---|---|---|---|---|---|
| 2026-05-04 18:32 | 51.15972 | -0.17150 | 204 ft | 0 kts | 323° |
| 2026-05-04 18:36 | 51.15968 | -0.17145 | 204 ft | 1 kts | 323° |
| 2026-05-04 18:36 | 51.15961 | -0.17137 | 217 ft | 1 kts | 323° |
| 2026-05-04 18:36 | 51.15955 | -0.17130 | 217 ft | 1 kts | 323° |
| 2026-05-04 18:37 | 51.15948 | -0.17122 | 217 ft | 2 kts | 317° |
| 2026-05-04 18:37 | 51.15938 | -0.17104 | 211 ft | 2 kts | 301° |
| 2026-05-04 18:37 | 51.15931 | -0.17083 | 213 ft | 2 kts | 285° |
| 2026-05-04 18:37 | 51.15928 | -0.17060 | 209 ft | 2 kts | 268° |
| 2026-05-04 18:38 | 51.15931 | -0.17036 | 204 ft | 2 kts | 247° |
| 2026-05-04 18:38 | 51.15938 | -0.17016 | 216 ft | 2 kts | 233° |
| 2026-05-04 18:38 | 51.15947 | -0.16997 | 212 ft | 2 kts | 229° |
| 2026-05-04 18:38 | 51.15950 | -0.16992 | 204 ft | 0 kts | 228° |
| 2026-05-04 18:42 | 51.15902 | -0.17051 | 208 ft | 19 kts | 215° |
| 2026-05-04 18:42 | 51.15809 | -0.17168 | 206 ft | 20 kts | 253° |
| 2026-05-04 18:43 | 51.15772 | -0.17439 | 208 ft | 29 kts | 256° |
| 2026-05-04 18:43 | 51.15725 | -0.17776 | 204 ft | 32 kts | 258° |
| 2026-05-04 18:43 | 51.15676 | -0.18137 | 214 ft | 34 kts | 257° |
| 2026-05-04 18:43 | 51.15646 | -0.18317 | 208 ft | 7 kts | 241° |
| 2026-05-04 18:44 | 51.15570 | -0.18332 | 208 ft | 16 kts | 172° |
| 2026-05-04 18:44 | 51.15489 | -0.18313 | 210 ft | 19 kts | 171° |
| 2026-05-04 18:44 | 51.15298 | -0.18243 | 204 ft | 23 kts | 167° |
| 2026-05-04 18:44 | 51.15176 | -0.18275 | 213 ft | 11 kts | 238° |
| 2026-05-04 18:45 | 51.15177 | -0.18376 | 204 ft | 13 kts | 269° |
| 2026-05-04 18:45 | 51.15149 | -0.18578 | 204 ft | 23 kts | 257° |
| 2026-05-04 18:45 | 51.15113 | -0.18850 | 215 ft | 27 kts | 258° |
| 2026-05-04 18:45 | 51.15073 | -0.19153 | 214 ft | 29 kts | 258° |
| 2026-05-04 18:46 | 51.15026 | -0.19474 | 212 ft | 31 kts | 252° |
| 2026-05-04 18:46 | 51.14978 | -0.19815 | 207 ft | 32 kts | 259° |
| 2026-05-04 18:46 | 51.14931 | -0.20178 | 207 ft | 34 kts | 258° |
| 2026-05-04 18:46 | 51.14880 | -0.20556 | 212 ft | 36 kts | 256° |
| 2026-05-04 18:47 | 51.14825 | -0.20927 | 214 ft | 19 kts | 258° |
| 2026-05-04 18:47 | 51.14806 | -0.21073 | 205 ft | 15 kts | 258° |
| 2026-05-04 18:47 | 51.14769 | -0.21239 | 211 ft | 17 kts | 256° |
| 2026-05-04 18:47 | 51.14716 | -0.21390 | 211 ft | 16 kts | 189° |
| 2026-05-04 18:48 | 51.14681 | -0.21377 | 213 ft | 2 kts | 141° |
| 2026-05-04 18:48 | 51.14636 | -0.21336 | 212 ft | 12 kts | 161° |
| 2026-05-04 18:48 | 51.14629 | -0.21333 | 209 ft | 0 kts | 166° |
| 2026-05-04 18:50 | 51.14627 | -0.21332 | 209 ft | 2 kts | 166° |
| 2026-05-04 18:50 | 51.14552 | -0.21286 | 215 ft | 21 kts | 144° |
| 2026-05-04 18:50 | 51.14536 | -0.21071 | 211 ft | 13 kts | 77° |
| 2026-05-04 18:51 | 51.14537 | -0.21059 | 210 ft | 1 kts | 77° |
| 2026-05-04 18:51 | 51.14544 | -0.21013 | 211 ft | 16 kts | 77° |
| 2026-05-04 18:51 | 51.14623 | -0.20441 | 214 ft | 88 kts | 77° |
| 2026-05-04 18:51 | 51.14798 | -0.19180 | 212 ft | 141 kts | 77° |
| 2026-05-04 18:52 | 51.15028 | -0.17468 | 323 ft | 173 kts | 77° |
| 2026-05-04 18:52 | 51.15288 | -0.15609 | 997 ft | 166 kts | 75° |
| 2026-05-04 18:52 | 51.15550 | -0.13906 | 1895 ft | 153 kts | 74° |
| 2026-05-04 18:52 | 51.15834 | -0.12098 | 2616 ft | 176 kts | 74° |
| 2026-05-04 18:53 | 51.16143 | -0.10146 | 3629 ft | 186 kts | 75° |
| 2026-05-04 18:53 | 51.16481 | -0.08058 | 4513 ft | 210 kts | 73° |
| 2026-05-04 18:53 | 51.17053 | -0.05634 | 4715 ft | 261 kts | 59° |
| 2026-05-04 18:53 | 51.18129 | -0.03253 | 4922 ft | 262 kts | 52° |
| 2026-05-04 18:54 | 51.19263 | -0.00992 | 5005 ft | 263 kts | 51° |
| 2026-05-04 18:54 | 51.20419 | 0.01302 | 5007 ft | 265 kts | 51° |
| 2026-05-04 18:54 | 51.21559 | 0.03598 | 5007 ft | 263 kts | 51° |
| 2026-05-04 18:54 | 51.22685 | 0.05901 | 5007 ft | 263 kts | 52° |
| 2026-05-04 18:55 | 51.23812 | 0.08227 | 5118 ft | 266 kts | 52° |
| 2026-05-04 18:55 | 51.25339 | 0.13636 | 6768 ft | 273 kts | 79° |
| 2026-05-04 18:55 | 51.25685 | 0.16640 | 7805 ft | 278 kts | 79° |
| 2026-05-04 18:56 | 51.26049 | 0.19700 | 8815 ft | 284 kts | 79° |
| 2026-05-04 18:56 | 51.26425 | 0.22837 | 9850 ft | 289 kts | 79° |
| 2026-05-04 18:56 | 51.26801 | 0.25998 | 10834 ft | 291 kts | 79° |
| 2026-05-04 18:56 | 51.27179 | 0.29186 | 11838 ft | 293 kts | 79° |
| 2026-05-04 18:57 | 51.27861 | 0.32251 | 12500 ft | 296 kts | 58° |
| 2026-05-04 18:57 | 51.29263 | 0.34661 | 12815 ft | 298 kts | 34° |
| 2026-05-04 18:57 | 51.31153 | 0.35925 | 12964 ft | 298 kts | 10° |
| 2026-05-04 18:57 | 51.33227 | 0.35809 | 13017 ft | 301 kts | 345° |
| 2026-05-04 18:58 | 51.35197 | 0.34596 | 13095 ft | 307 kts | 336° |
| 2026-05-04 18:58 | 51.37161 | 0.33216 | 13796 ft | 308 kts | 336° |
| 2026-05-04 18:58 | 51.39135 | 0.31846 | 14708 ft | 311 kts | 337° |
| 2026-05-04 18:58 | 51.41147 | 0.30489 | 15493 ft | 316 kts | 337° |
| 2026-05-04 18:59 | 51.43169 | 0.29156 | 16262 ft | 321 kts | 338° |
| 2026-05-04 18:59 | 51.45251 | 0.27800 | 17086 ft | 326 kts | 338° |
| 2026-05-04 18:59 | 51.47381 | 0.26418 | 17805 ft | 332 kts | 338° |
| 2026-05-04 18:59 | 51.49548 | 0.25011 | 18533 ft | 338 kts | 337° |
| 2026-05-04 19:00 | 51.51751 | 0.23579 | 18995 ft | 341 kts | 337° |
| 2026-05-04 19:00 | 51.53962 | 0.22138 | 19576 ft | 344 kts | 337° |
| 2026-05-04 19:00 | 51.56181 | 0.20689 | 20381 ft | 346 kts | 337° |
| 2026-05-04 19:00 | 51.58425 | 0.19224 | 21036 ft | 350 kts | 336° |
| 2026-05-04 19:01 | 51.60700 | 0.17736 | 21710 ft | 354 kts | 336° |
| 2026-05-04 19:01 | 51.62956 | 0.16137 | 22428 ft | 356 kts | 329° |
| 2026-05-04 19:01 | 51.64933 | 0.13758 | 23077 ft | 357 kts | 313° |
| 2026-05-04 19:01 | 51.66450 | 0.10662 | 23686 ft | 358 kts | 301° |
| 2026-05-04 19:02 | 51.67835 | 0.07173 | 23935 ft | 373 kts | 301° |
| 2026-05-04 19:02 | 51.69269 | 0.03581 | 24087 ft | 389 kts | 301° |
| 2026-05-04 19:02 | 51.70743 | -0.00100 | 24231 ft | 404 kts | 301° |
| 2026-05-04 19:02 | 51.72317 | -0.04024 | 24504 ft | 416 kts | 301° |
| 2026-05-04 19:03 | 51.74005 | -0.07848 | 25020 ft | 421 kts | 308° |
| 2026-05-04 19:03 | 51.76076 | -0.11223 | 25564 ft | 426 kts | 318° |
| 2026-05-04 19:03 | 51.78462 | -0.13997 | 26057 ft | 431 kts | 327° |
| 2026-05-04 19:03 | 51.81060 | -0.16446 | 26551 ft | 435 kts | 327° |
| 2026-05-04 19:04 | 51.83671 | -0.18922 | 27124 ft | 435 kts | 327° |
| 2026-05-04 19:04 | 51.86287 | -0.21415 | 27593 ft | 438 kts | 327° |
| 2026-05-04 19:04 | 51.88926 | -0.23938 | 28040 ft | 442 kts | 327° |
| 2026-05-04 19:04 | 51.91578 | -0.26476 | 28473 ft | 445 kts | 327° |
| 2026-05-04 19:05 | 51.94251 | -0.29037 | 28908 ft | 447 kts | 327° |
| 2026-05-04 19:05 | 51.96939 | -0.31615 | 29323 ft | 450 kts | 327° |
| 2026-05-04 19:05 | 51.99643 | -0.34212 | 29727 ft | 453 kts | 327° |
| 2026-05-04 19:05 | 52.02363 | -0.36828 | 30128 ft | 456 kts | 327° |
| 2026-05-04 19:06 | 52.05096 | -0.39460 | 30491 ft | 458 kts | 327° |
| 2026-05-04 19:06 | 52.07834 | -0.42102 | 30971 ft | 457 kts | 327° |
| 2026-05-04 19:06 | 52.10575 | -0.44748 | 31318 ft | 460 kts | 327° |
| 2026-05-04 19:06 | 52.13324 | -0.47407 | 31744 ft | 460 kts | 327° |
| 2026-05-04 19:07 | 52.16081 | -0.50076 | 32205 ft | 459 kts | 327° |
| 2026-05-04 19:07 | 52.18823 | -0.52736 | 32660 ft | 459 kts | 327° |
| 2026-05-04 19:07 | 52.21564 | -0.55398 | 33104 ft | 458 kts | 327° |
| 2026-05-04 19:07 | 52.24304 | -0.58064 | 33529 ft | 458 kts | 327° |
| 2026-05-04 19:08 | 52.27039 | -0.60729 | 33953 ft | 457 kts | 327° |
| 2026-05-04 19:08 | 52.29769 | -0.63396 | 34388 ft | 454 kts | 328° |
| 2026-05-04 19:08 | 52.32465 | -0.66033 | 34821 ft | 452 kts | 328° |
| 2026-05-04 19:08 | 52.35129 | -0.68642 | 35112 ft | 452 kts | 328° |
| 2026-05-04 19:09 | 52.37830 | -0.71290 | 35410 ft | 453 kts | 328° |
| 2026-05-04 19:09 | 52.40530 | -0.73939 | 35704 ft | 453 kts | 328° |
| 2026-05-04 19:09 | 52.43233 | -0.76597 | 35994 ft | 453 kts | 328° |
| 2026-05-04 19:09 | 52.45936 | -0.79257 | 36279 ft | 453 kts | 328° |
| 2026-05-04 19:10 | 52.48635 | -0.81917 | 36556 ft | 453 kts | 328° |
| 2026-05-04 19:10 | 52.51341 | -0.84588 | 36819 ft | 454 kts | 328° |
| 2026-05-04 19:10 | 52.54042 | -0.87258 | 37134 ft | 452 kts | 328° |
| 2026-05-04 19:10 | 52.56734 | -0.89924 | 37415 ft | 452 kts | 328° |
| 2026-05-04 19:11 | 52.59429 | -0.92597 | 37681 ft | 452 kts | 328° |
| 2026-05-04 19:11 | 52.62122 | -0.95270 | 37914 ft | 452 kts | 328° |
| 2026-05-04 19:11 | 52.64814 | -0.97947 | 38031 ft | 452 kts | 328° |
| 2026-05-04 19:11 | 52.67509 | -1.00631 | 38034 ft | 451 kts | 328° |
| 2026-05-04 19:12 | 52.75561 | -1.08673 | 38055 ft | 451 kts | 328° |
| 2026-05-04 19:13 | 52.80909 | -1.14035 | 38049 ft | 448 kts | 328° |
| 2026-05-04 19:13 | 52.86248 | -1.19401 | 38046 ft | 449 kts | 328° |
| 2026-05-04 19:14 | 52.91592 | -1.24788 | 38049 ft | 449 kts | 328° |
| 2026-05-04 19:14 | 52.96928 | -1.30184 | 38050 ft | 449 kts | 328° |
| 2026-05-04 19:15 | 53.02269 | -1.35601 | 38053 ft | 450 kts | 328° |
| 2026-05-04 19:15 | 53.07607 | -1.41030 | 38050 ft | 450 kts | 328° |
| 2026-05-04 19:16 | 53.12900 | -1.46429 | 38053 ft | 450 kts | 328° |
| 2026-05-04 19:16 | 53.18246 | -1.51899 | 38054 ft | 450 kts | 328° |
| 2026-05-04 19:17 | 53.23580 | -1.57374 | 38052 ft | 450 kts | 328° |
| 2026-05-04 19:17 | 53.28904 | -1.62852 | 38049 ft | 447 kts | 328° |
| 2026-05-04 19:18 | 53.34210 | -1.68330 | 38043 ft | 448 kts | 328° |
| 2026-05-04 19:18 | 53.39510 | -1.73817 | 38044 ft | 448 kts | 328° |
| 2026-05-04 19:19 | 53.44806 | -1.79316 | 38044 ft | 448 kts | 328° |
| 2026-05-04 19:19 | 53.50106 | -1.84834 | 38045 ft | 448 kts | 328° |
| 2026-05-04 19:20 | 53.55408 | -1.90364 | 38046 ft | 449 kts | 328° |
| 2026-05-04 19:20 | 53.60715 | -1.95917 | 38049 ft | 449 kts | 328° |
| 2026-05-04 19:21 | 53.66019 | -2.01494 | 38051 ft | 449 kts | 327° |
| 2026-05-04 19:21 | 53.71319 | -2.07087 | 38056 ft | 449 kts | 327° |
| 2026-05-04 19:22 | 53.76803 | -2.11944 | 38046 ft | 441 kts | 338° |
| 2026-05-04 19:22 | 53.82523 | -2.15823 | 38045 ft | 444 kts | 338° |
| 2026-05-04 19:23 | 53.88245 | -2.19770 | 38048 ft | 443 kts | 338° |
| 2026-05-04 19:23 | 53.93938 | -2.23684 | 38049 ft | 444 kts | 338° |
| 2026-05-04 19:24 | 53.99659 | -2.27616 | 38041 ft | 443 kts | 338° |
| 2026-05-04 19:24 | 54.04424 | -2.30898 | 38044 ft | 444 kts | 338° |
| 2026-05-04 19:25 | 54.10155 | -2.34859 | 38043 ft | 444 kts | 338° |
| 2026-05-04 19:25 | 54.15888 | -2.38831 | 38046 ft | 444 kts | 338° |
| 2026-05-04 19:26 | 54.21589 | -2.42794 | 38048 ft | 445 kts | 338° |
| 2026-05-04 19:26 | 54.27290 | -2.46767 | 38034 ft | 437 kts | 337° |
| 2026-05-04 19:27 | 54.32923 | -2.50705 | 38036 ft | 439 kts | 337° |
| 2026-05-04 19:27 | 54.38601 | -2.54687 | 38005 ft | 439 kts | 337° |
| 2026-05-04 19:27 | 54.41421 | -2.56670 | 37714 ft | 437 kts | 337° |
| 2026-05-04 19:28 | 54.44234 | -2.58651 | 37091 ft | 438 kts | 337° |
| 2026-05-04 19:28 | 54.47067 | -2.60649 | 36195 ft | 442 kts | 337° |
| 2026-05-04 19:28 | 54.49925 | -2.62665 | 35312 ft | 445 kts | 336° |
| 2026-05-04 19:28 | 54.52804 | -2.64702 | 34410 ft | 449 kts | 337° |
| 2026-05-04 19:29 | 54.55697 | -2.66751 | 33472 ft | 450 kts | 337° |
| 2026-05-04 19:29 | 54.58595 | -2.68807 | 32517 ft | 451 kts | 337° |
| 2026-05-04 19:29 | 54.61483 | -2.70859 | 31896 ft | 446 kts | 336° |
| 2026-05-04 19:29 | 54.64347 | -2.72896 | 31092 ft | 445 kts | 336° |
| 2026-05-04 19:30 | 54.67227 | -2.74950 | 29997 ft | 451 kts | 336° |
| 2026-05-04 19:30 | 54.70128 | -2.77021 | 29028 ft | 450 kts | 336° |
| 2026-05-04 19:30 | 54.73003 | -2.79074 | 28433 ft | 443 kts | 336° |
| 2026-05-04 19:30 | 54.75778 | -2.81055 | 28084 ft | 430 kts | 336° |
| 2026-05-04 19:31 | 54.78505 | -2.83008 | 27816 ft | 418 kts | 336° |
| 2026-05-04 19:31 | 54.81194 | -2.84940 | 27413 ft | 419 kts | 336° |
| 2026-05-04 19:31 | 54.83890 | -2.86882 | 26843 ft | 418 kts | 336° |
| 2026-05-04 19:31 | 54.86565 | -2.88810 | 26311 ft | 413 kts | 336° |
| 2026-05-04 19:32 | 54.89212 | -2.90719 | 26051 ft | 410 kts | 336° |
| 2026-05-04 19:32 | 54.91865 | -2.92637 | 25828 ft | 414 kts | 336° |
| 2026-05-04 19:32 | 54.94527 | -2.94563 | 25536 ft | 413 kts | 336° |
| 2026-05-04 19:32 | 54.97173 | -2.96480 | 24983 ft | 412 kts | 336° |
| 2026-05-04 19:33 | 54.99817 | -2.98393 | 24394 ft | 409 kts | 335° |
| 2026-05-04 19:33 | 55.02431 | -3.00290 | 23817 ft | 405 kts | 335° |
| 2026-05-04 19:33 | 55.05022 | -3.02176 | 23167 ft | 402 kts | 335° |
| 2026-05-04 19:33 | 55.07573 | -3.04035 | 22475 ft | 392 kts | 335° |
| 2026-05-04 19:34 | 55.10072 | -3.05857 | 21804 ft | 387 kts | 335° |
| 2026-05-04 19:34 | 55.12556 | -3.07675 | 21166 ft | 386 kts | 335° |
| 2026-05-04 19:34 | 55.15026 | -3.09482 | 20532 ft | 382 kts | 335° |
| 2026-05-04 19:34 | 55.17438 | -3.11249 | 19920 ft | 378 kts | 335° |
| 2026-05-04 19:35 | 55.19851 | -3.13018 | 19311 ft | 374 kts | 335° |
| 2026-05-04 19:35 | 55.22244 | -3.14776 | 18715 ft | 371 kts | 335° |
| 2026-05-04 19:35 | 55.24613 | -3.16516 | 18115 ft | 365 kts | 335° |
| 2026-05-04 19:35 | 55.26938 | -3.18227 | 17461 ft | 362 kts | 335° |
| 2026-05-04 19:36 | 55.29339 | -3.19585 | 16797 ft | 364 kts | 346° |
| 2026-05-04 19:36 | 55.31855 | -3.20042 | 16155 ft | 365 kts | 357° |
| 2026-05-04 19:36 | 55.34391 | -3.19718 | 15528 ft | 365 kts | 2° |
| 2026-05-04 19:36 | 55.36924 | -3.19313 | 14905 ft | 364 kts | 2° |
| 2026-05-04 19:37 | 55.39433 | -3.18923 | 14302 ft | 362 kts | 2° |
| 2026-05-04 19:37 | 55.41937 | -3.18535 | 13687 ft | 360 kts | 2° |
| 2026-05-04 19:37 | 55.44429 | -3.18147 | 13022 ft | 358 kts | 2° |
| 2026-05-04 19:37 | 55.46904 | -3.17760 | 12371 ft | 357 kts | 2° |
| 2026-05-04 19:38 | 55.49351 | -3.17374 | 12076 ft | 346 kts | 2° |
| 2026-05-04 19:38 | 55.51696 | -3.17001 | 11923 ft | 331 kts | 2° |
| 2026-05-04 19:38 | 55.53939 | -3.16645 | 11783 ft | 317 kts | 2° |
| 2026-05-04 19:38 | 55.56086 | -3.16305 | 11658 ft | 303 kts | 1° |
| 2026-05-04 19:39 | 55.58166 | -3.15980 | 11342 ft | 297 kts | 1° |
| 2026-05-04 19:39 | 55.60220 | -3.15661 | 10866 ft | 299 kts | 1° |
| 2026-05-04 19:39 | 55.62319 | -3.15339 | 10254 ft | 305 kts | 1° |
| 2026-05-04 19:39 | 55.64447 | -3.15008 | 9613 ft | 309 kts | 2° |
| 2026-05-04 19:40 | 55.66573 | -3.14674 | 8947 ft | 311 kts | 2° |
| 2026-05-04 19:40 | 55.68689 | -3.14338 | 8304 ft | 306 kts | 2° |
| 2026-05-04 19:40 | 55.70797 | -3.13974 | 7666 ft | 302 kts | 6° |
| 2026-05-04 19:40 | 55.72854 | -3.13102 | 7032 ft | 300 kts | 16° |
| 2026-05-04 19:41 | 55.74763 | -3.11797 | 6428 ft | 295 kts | 19° |
| 2026-05-04 19:41 | 55.76691 | -3.10478 | 5760 ft | 291 kts | 19° |
| 2026-05-04 19:41 | 55.78547 | -3.09217 | 5126 ft | 287 kts | 19° |
| 2026-05-04 19:41 | 55.80366 | -3.07831 | 4468 ft | 285 kts | 30° |
| 2026-05-04 19:42 | 55.81911 | -3.05582 | 3828 ft | 283 kts | 39° |
| 2026-05-04 19:42 | 55.83342 | -3.03260 | 3266 ft | 279 kts | 39° |
| 2026-05-04 19:42 | 55.84755 | -3.00978 | 3043 ft | 261 kts | 39° |
| 2026-05-04 19:42 | 55.86036 | -2.98890 | 2991 ft | 246 kts | 39° |
| 2026-05-04 19:43 | 55.87272 | -2.96871 | 2994 ft | 231 kts | 39° |
| 2026-05-04 19:43 | 55.88412 | -2.94985 | 2992 ft | 217 kts | 39° |
| 2026-05-04 19:43 | 55.89482 | -2.93203 | 2995 ft | 208 kts | 39° |
| 2026-05-04 19:43 | 55.90679 | -2.91850 | 2995 ft | 204 kts | 10° |
| 2026-05-04 19:44 | 55.92077 | -2.91533 | 2994 ft | 202 kts | 0° |
| 2026-05-04 19:44 | 55.93470 | -2.91355 | 2994 ft | 200 kts | 0° |
| 2026-05-04 19:44 | 55.94868 | -2.91188 | 2995 ft | 203 kts | 359° |
| 2026-05-04 19:44 | 55.96265 | -2.91045 | 2990 ft | 200 kts | 359° |
| 2026-05-04 19:45 | 55.97651 | -2.91154 | 2992 ft | 199 kts | 351° |
| 2026-05-04 19:45 | 55.99024 | -2.91472 | 2988 ft | 197 kts | 345° |
| 2026-05-04 19:45 | 56.00335 | -2.92147 | 2990 ft | 196 kts | 339° |
| 2026-05-04 19:45 | 56.01634 | -2.92903 | 2989 ft | 197 kts | 339° |
| 2026-05-04 19:46 | 56.02916 | -2.93646 | 2986 ft | 188 kts | 339° |
| 2026-05-04 19:46 | 56.04116 | -2.94333 | 2988 ft | 174 kts | 339° |
| 2026-05-04 19:46 | 56.05274 | -2.95009 | 2990 ft | 178 kts | 335° |
| 2026-05-04 19:46 | 56.06175 | -2.96413 | 2994 ft | 174 kts | 296° |
| 2026-05-04 19:47 | 56.06610 | -2.98426 | 2994 ft | 172 kts | 289° |
| 2026-05-04 19:47 | 56.06823 | -3.00531 | 2993 ft | 174 kts | 269° |
| 2026-05-04 19:47 | 56.06551 | -3.02678 | 2993 ft | 182 kts | 250° |
| 2026-05-04 19:47 | 56.05992 | -3.04678 | 2984 ft | 175 kts | 243° |
| 2026-05-04 19:48 | 56.05389 | -3.06466 | 2989 ft | 160 kts | 243° |
| 2026-05-04 19:48 | 56.04816 | -3.08176 | 2998 ft | 162 kts | 243° |
| 2026-05-04 19:48 | 56.04250 | -3.09857 | 2993 ft | 159 kts | 242° |
| 2026-05-04 19:48 | 56.03671 | -3.11575 | 2994 ft | 162 kts | 243° |
| 2026-05-04 19:49 | 56.03097 | -3.13277 | 2981 ft | 158 kts | 243° |
| 2026-05-04 19:49 | 56.02526 | -3.14976 | 2844 ft | 161 kts | 243° |
| 2026-05-04 19:49 | 56.01950 | -3.16680 | 2606 ft | 159 kts | 243° |
| 2026-05-04 19:49 | 56.01381 | -3.18366 | 2409 ft | 157 kts | 243° |
| 2026-05-04 19:50 | 56.00822 | -3.20024 | 2190 ft | 155 kts | 243° |
| 2026-05-04 19:50 | 56.00262 | -3.21686 | 1981 ft | 157 kts | 244° |
| 2026-05-04 19:50 | 55.99701 | -3.23345 | 1769 ft | 155 kts | 244° |
| 2026-05-04 19:50 | 55.99146 | -3.24986 | 1563 ft | 150 kts | 243° |
| 2026-05-04 19:51 | 55.98627 | -3.26520 | 1366 ft | 139 kts | 243° |
| 2026-05-04 19:51 | 55.98149 | -3.27933 | 1175 ft | 126 kts | 244° |
| 2026-05-04 19:51 | 55.97718 | -3.29210 | 1007 ft | 118 kts | 242° |
| 2026-05-04 19:51 | 55.97275 | -3.30525 | 828 ft | 123 kts | 242° |
| 2026-05-04 19:52 | 55.96840 | -3.31810 | 656 ft | 119 kts | 242° |
| 2026-05-04 19:52 | 55.96406 | -3.33093 | 510 ft | 123 kts | 241° |
| 2026-05-04 19:52 | 55.95962 | -3.34369 | 332 ft | 118 kts | 243° |
| 2026-05-04 19:52 | 55.95535 | -3.35651 | 157 ft | 123 kts | 242° |
| 2026-05-04 19:53 | 55.95119 | -3.36898 | 108 ft | 92 kts | 239° |
| 2026-05-04 19:53 | 55.94921 | -3.37473 | 107 ft | 41 kts | 238° |
| 2026-05-04 19:53 | 55.94789 | -3.37868 | 115 ft | 22 kts | 239° |
| 2026-05-04 19:53 | 55.94687 | -3.38052 | 115 ft | 0 kts | 181° |
| 2026-05-04 19:54 | 55.94620 | -3.37985 | 111 ft | 20 kts | 141° |
| 2026-05-04 19:54 | 55.94603 | -3.37823 | 110 ft | 9 kts | 42° |
| 2026-05-04 19:54 | 55.94649 | -3.37714 | 113 ft | 15 kts | 60° |
| 2026-05-04 19:54 | 55.94728 | -3.37468 | 108 ft | 28 kts | 57° |
| 2026-05-04 19:55 | 55.94847 | -3.37131 | 105 ft | 35 kts | 58° |
| 2026-05-04 19:55 | 55.94924 | -3.36892 | 104 ft | 10 kts | 69° |
| 2026-05-04 19:55 | 55.94873 | -3.36764 | 105 ft | 10 kts | 114° |
| 2026-05-04 19:55 | 55.94891 | -3.36685 | 105 ft | 18 kts | 54° |
| 2026-05-04 19:56 | 55.94981 | -3.36466 | 106 ft | 15 kts | 61° |
| 2026-05-04 19:56 | 55.94981 | -3.36421 | 106 ft | 7 kts | 104° |
| 2026-05-04 19:56 | 55.94945 | -3.36362 | 107 ft | 0 kts | 144° |
| 2026-05-04 19:56 | 55.94942 | -3.36358 | 107 ft | 0 kts | 147° |